Weather at Svínafell Airport

Public forecast

Using degrees Celsius for public forecast. Weather courtesy of forecast.io.

Closest aviation weather report (METAR) to Svínafell Airport

Report is more than 6 hours old.

Closest report is Hornafjörður Airport, 6.6 nm (12.3 km) SE. Retrieved 2020/10/23 19:00 UTC (1 day ago):

BIHN 231900Z 07004KT 9999 -DZ BKN025 OVC035 06/05 Q0986

Closest aviation forecast (TAF) to Svínafell Airport

Closest forecast is Egilsstaðir Airport, 59.6 nm (110.3 km) NNE. Retrieved 2020/10/24 21:43 UTC (53 minutes ago):

TAF BIEG 241937Z 2421/2521 07022G33KT 9999 -RA SCT018 BKN024 TX05/2508Z TN03/2506Z TEMPO 2421/2508 4000 RA BR BKN008 BECMG 2423/2501 01015KT BECMG 2506/2508 36007KT